Hobbsville, North Carolina
Current Conditions -  °F | °C
As of 9:55 AM on Monday 24 Nov 2014 (Local Time) from KEDE Reporting Station
Scattered Clouds Scattered Clouds  
Wind Chill: 69°   Ceiling: Unl
Heat Index: 69°   Visibility: 10mi
Dew Point: 66°   Wind: 13mph
Humidity: 90%   Direction: 210°SSW
Pressure: 29.86"   Gusts: NA
Location:  36.35°N, 76.6°W
Report Text: KEDE 241455Z AUTO 21011KT 10SM SCT016 SCT023 SCT075 20/19 A2986 RMK AO2 T02040188
Loading
Personal Weather Stations






























Interactive Weather Map New forecast layout! Learn more

10-Day Weather Forecast

Advertisements
Track Severe Weather on mobile